sensor_id;sensor_type;location;lat;lon;timestamp;pressure;altitude;pressure_sealevel;temperature
78859;BMP280;68210;52.032;4.634;2024-03-17T00:01:55;102108.66;;;7.75
78859;BMP280;68210;52.032;4.634;2024-03-17T00:03:55;102090.84;;;7.74
78859;BMP280;68210;52.032;4.634;2024-03-17T00:05:59;102095.25;;;7.70
78859;BMP280;68210;52.032;4.634;2024-03-17T00:08:00;102094.22;;;7.66
78859;BMP280;68210;52.032;4.634;2024-03-17T00:10:00;102095.03;;;7.53
78859;BMP280;68210;52.032;4.634;2024-03-17T00:12:01;102096.91;;;7.53
78859;BMP280;68210;52.032;4.634;2024-03-17T00:14:02;102093.84;;;7.59
78859;BMP280;68210;52.032;4.634;2024-03-17T00:16:02;102087.03;;;7.61
78859;BMP280;68210;52.032;4.634;2024-03-17T00:18:03;102091.06;;;7.64
78859;BMP280;68210;52.032;4.634;2024-03-17T00:20:04;102085.03;;;7.54
78859;BMP280;68210;52.032;4.634;2024-03-17T00:22:10;102084.63;;;7.60
78859;BMP280;68210;52.032;4.634;2024-03-17T00:24:13;102086.09;;;7.39
78859;BMP280;68210;52.032;4.634;2024-03-17T00:26:14;102084.25;;;7.53
78859;BMP280;68210;52.032;4.634;2024-03-17T00:28:14;102085.13;;;7.49
78859;BMP280;68210;52.032;4.634;2024-03-17T00:30:14;102087.13;;;7.43
78859;BMP280;68210;52.032;4.634;2024-03-17T00:32:15;102088.63;;;7.49
78859;BMP280;68210;52.032;4.634;2024-03-17T00:34:17;102088.63;;;7.49
78859;BMP280;68210;52.032;4.634;2024-03-17T00:36:19;102083.22;;;7.49
78859;BMP280;68210;52.032;4.634;2024-03-17T00:38:19;102087.03;;;7.48
78859;BMP280;68210;52.032;4.634;2024-03-17T00:40:20;102089.84;;;7.57
78859;BMP280;68210;52.032;4.634;2024-03-17T00:42:20;102086.44;;;7.51
78859;BMP280;68210;52.032;4.634;2024-03-17T00:44:21;102090.63;;;7.44
78859;BMP280;68210;52.032;4.634;2024-03-17T00:46:22;102092.44;;;7.48
78859;BMP280;68210;52.032;4.634;2024-03-17T00:48:22;102081.81;;;7.38
78859;BMP280;68210;52.032;4.634;2024-03-17T00:50:23;102090.63;;;7.44
78859;BMP280;68210;52.032;4.634;2024-03-17T00:52:23;102083.22;;;7.49
78859;BMP280;68210;52.032;4.634;2024-03-17T00:54:23;102084.53;;;7.52
78859;BMP280;68210;52.032;4.634;2024-03-17T00:56:24;102070.53;;;7.50
78859;BMP280;68210;52.032;4.634;2024-03-17T00:58:24;102072.41;;;7.36
78859;BMP280;68210;52.032;4.634;2024-03-17T01:00:24;102067.81;;;7.36
78859;BMP280;68210;52.032;4.634;2024-03-17T01:02:25;102068.25;;;7.43
78859;BMP280;68210;52.032;4.634;2024-03-17T01:04:25;102060.06;;;7.48
78859;BMP280;68210;52.032;4.634;2024-03-17T01:06:25;102061.97;;;7.48
78859;BMP280;68210;52.032;4.634;2024-03-17T01:08:26;102065.84;;;7.55
78859;BMP280;68210;52.032;4.634;2024-03-17T01:10:26;102051.25;;;7.43
78859;BMP280;68210;52.032;4.634;2024-03-17T01:12:26;102051.88;;;7.53
78859;BMP280;68210;52.032;4.634;2024-03-17T01:14:27;102050.47;;;7.56
78859;BMP280;68210;52.032;4.634;2024-03-17T01:16:28;102055.88;;;7.56
78859;BMP280;68210;52.032;4.634;2024-03-17T01:18:28;102052.66;;;7.40
78859;BMP280;68210;52.032;4.634;2024-03-17T01:20:28;102045.97;;;7.51
78859;BMP280;68210;52.032;4.634;2024-03-17T01:22:29;102039.06;;;7.45
78859;BMP280;68210;52.032;4.634;2024-03-17T01:24:29;102044.47;;;7.45
78859;BMP280;68210;52.032;4.634;2024-03-17T01:26:31;102037.88;;;7.51
78859;BMP280;68210;52.032;4.634;2024-03-17T01:28:32;102037.25;;;7.54
78859;BMP280;68210;52.032;4.634;2024-03-17T01:30:32;102036.16;;;7.55
78859;BMP280;68210;52.032;4.634;2024-03-17T01:32:34;102037.25;;;7.54
78859;BMP280;68210;52.032;4.634;2024-03-17T01:34:34;102040.38;;;7.61
78859;BMP280;68210;52.032;4.634;2024-03-17T01:36:35;102024.38;;;7.38
78859;BMP280;68210;52.032;4.634;2024-03-17T01:38:35;102027.06;;;7.51
78859;BMP280;68210;52.032;4.634;2024-03-17T01:40:36;102032.06;;;7.57
78859;BMP280;68210;52.032;4.634;2024-03-17T01:42:38;102026.66;;;7.44
78859;BMP280;68210;52.032;4.634;2024-03-17T01:44:38;102022.66;;;7.55
78859;BMP280;68210;52.032;4.634;2024-03-17T01:46:39;102022.47;;;7.52
78859;BMP280;68210;52.032;4.634;2024-03-17T01:48:40;102024.38;;;7.51
78859;BMP280;68210;52.032;4.634;2024-03-17T01:50:41;102020.66;;;7.47
78859;BMP280;68210;52.032;4.634;2024-03-17T01:52:41;102020.06;;;7.50
78859;BMP280;68210;52.032;4.634;2024-03-17T01:54:43;102024.28;;;7.56
78859;BMP280;68210;52.032;4.634;2024-03-17T01:56:44;102014.97;;;7.49
78859;BMP280;68210;52.032;4.634;2024-03-17T01:58:45;102010.38;;;7.49
78859;BMP280;68210;52.032;4.634;2024-03-17T02:00:45;102004.97;;;7.49
78859;BMP280;68210;52.032;4.634;2024-03-17T02:02:45;102004.88;;;7.27
78859;BMP280;68210;52.032;4.634;2024-03-17T02:04:46;102001.47;;;7.35
78859;BMP280;68210;52.032;4.634;2024-03-17T02:06:46;101995.56;;;7.33
78859;BMP280;68210;52.032;4.634;2024-03-17T02:08:52;102002.97;;;7.28
78859;BMP280;68210;52.032;4.634;2024-03-17T02:10:54;101991.91;;;7.29
78859;BMP280;68210;52.032;4.634;2024-03-17T02:12:55;101988.69;;;7.14
78859;BMP280;68210;52.032;4.634;2024-03-17T02:14:55;101997.09;;;7.13
78859;BMP280;68210;52.032;4.634;2024-03-17T02:16:56;102004.25;;;7.17
78859;BMP280;68210;52.032;4.634;2024-03-17T02:18:57;101995.88;;;7.19
78859;BMP280;68210;52.032;4.634;2024-03-17T02:20:58;101989.47;;;7.15
78859;BMP280;68210;52.032;4.634;2024-03-17T02:23:01;101992.00;;;7.25
78859;BMP280;68210;52.032;4.634;2024-03-17T02:25:02;101991.28;;;7.19
78859;BMP280;68210;52.032;4.634;2024-03-17T02:27:02;101978.69;;;7.15
78859;BMP280;68210;52.032;4.634;2024-03-17T02:29:03;101980.50;;;7.19
78859;BMP280;68210;52.032;4.634;2024-03-17T02:31:04;101986.31;;;7.13
78859;BMP280;68210;52.032;4.634;2024-03-17T02:33:05;101982.88;;;7.21
78859;BMP280;68210;52.032;4.634;2024-03-17T02:35:05;101983.09;;;7.11
78859;BMP280;68210;52.032;4.634;2024-03-17T02:37:06;101985.00;;;7.24
78859;BMP280;68210;52.032;4.634;2024-03-17T02:39:07;101986.69;;;7.20
78859;BMP280;68210;52.032;4.634;2024-03-17T02:41:26;101978.69;;;7.28
78859;BMP280;68210;52.032;4.634;2024-03-17T02:43:27;101970.31;;;7.16
78859;BMP280;68210;52.032;4.634;2024-03-17T02:45:27;101972.00;;;7.26
78859;BMP280;68210;52.032;4.634;2024-03-17T02:47:27;101964.91;;;7.29
78859;BMP280;68210;52.032;4.634;2024-03-17T02:49:28;101975.41;;;7.31
78859;BMP280;68210;52.032;4.634;2024-03-17T02:51:35;101960.81;;;7.32
78859;BMP280;68210;52.032;4.634;2024-03-17T02:53:35;101972.69;;;7.18
78859;BMP280;68210;52.032;4.634;2024-03-17T02:55:36;101963.44;;;7.24
78859;BMP280;68210;52.032;4.634;2024-03-17T02:57:36;101965.63;;;7.22
78859;BMP280;68210;52.032;4.634;2024-03-17T02:59:36;101964.13;;;7.29
78859;BMP280;68210;52.032;4.634;2024-03-17T03:01:37;101970.59;;;7.28
78859;BMP280;68210;52.032;4.634;2024-03-17T03:03:37;101961.72;;;7.14
78859;BMP280;68210;52.032;4.634;2024-03-17T03:05:38;101965.53;;;7.27
78859;BMP280;68210;52.032;4.634;2024-03-17T03:07:38;101960.22;;;7.35
78859;BMP280;68210;52.032;4.634;2024-03-17T03:09:38;101964.31;;;7.32
78859;BMP280;68210;52.032;4.634;2024-03-17T03:11:39;101959.13;;;7.36
78859;BMP280;68210;52.032;4.634;2024-03-17T03:13:41;101966.59;;;7.39
78859;BMP280;68210;52.032;4.634;2024-03-17T03:15:43;101957.34;;;7.31
78859;BMP280;68210;52.032;4.634;2024-03-17T03:17:43;101962.00;;;7.39
78859;BMP280;68210;52.032;4.634;2024-03-17T03:19:44;101955.34;;;7.37
78859;BMP280;68210;52.032;4.634;2024-03-17T03:21:44;101953.91;;;7.39
78859;BMP280;68210;52.032;4.634;2024-03-17T03:23:45;101952.84;;;7.27
78859;BMP280;68210;52.032;4.634;2024-03-17T03:25:46;101944.53;;;7.37
78859;BMP280;68210;52.032;4.634;2024-03-17T03:27:48;101935.53;;;7.41
78859;BMP280;68210;52.032;4.634;2024-03-17T03:29:49;101933.34;;;7.43
78859;BMP280;68210;52.032;4.634;2024-03-17T03:31:49;101915.44;;;7.47
78859;BMP280;68210;52.032;4.634;2024-03-17T03:33:49;101924.13;;;7.44
78859;BMP280;68210;52.032;4.634;2024-03-17T03:35:50;101917.75;;;7.40
78859;BMP280;68210;52.032;4.634;2024-03-17T03:37:50;101909.06;;;7.43
78859;BMP280;68210;52.032;4.634;2024-03-17T03:39:51;101897.75;;;7.41
78859;BMP280;68210;52.032;4.634;2024-03-17T03:41:52;101912.56;;;7.30
78859;BMP280;68210;52.032;4.634;2024-03-17T03:43:52;101898.06;;;7.40
78859;BMP280;68210;52.032;4.634;2024-03-17T03:45:53;101897.66;;;7.46
78859;BMP280;68210;52.032;4.634;2024-03-17T03:47:53;101900.75;;;7.53
78859;BMP280;68210;52.032;4.634;2024-03-17T03:49:54;101900.84;;;7.48
78859;BMP280;68210;52.032;4.634;2024-03-17T03:51:54;101894.44;;;7.44
78859;BMP280;68210;52.032;4.634;2024-03-17T03:53:54;101900.56;;;7.36
78859;BMP280;68210;52.032;4.634;2024-03-17T03:55:55;101888.19;;;7.35
78859;BMP280;68210;52.032;4.634;2024-03-17T03:57:56;101887.56;;;7.38
78859;BMP280;68210;52.032;4.634;2024-03-17T03:59:56;101880.69;;;7.32
78859;BMP280;68210;52.032;4.634;2024-03-17T04:01:57;101888.59;;;7.29
78859;BMP280;68210;52.032;4.634;2024-03-17T04:03:58;101886.59;;;7.34
78859;BMP280;68210;52.032;4.634;2024-03-17T04:06:06;101866.63;;;7.22
78859;BMP280;68210;52.032;4.634;2024-03-17T04:08:07;101878.59;;;7.29
78859;BMP280;68210;52.032;4.634;2024-03-17T04:10:09;101863.91;;;7.35
78859;BMP280;68210;52.032;4.634;2024-03-17T04:12:09;101869.19;;;7.40
78859;BMP280;68210;52.032;4.634;2024-03-17T04:14:10;101869.19;;;7.40
78859;BMP280;68210;52.032;4.634;2024-03-17T04:16:10;101871.38;;;7.38
78859;BMP280;68210;52.032;4.634;2024-03-17T04:18:11;101875.56;;;7.44
78859;BMP280;68210;52.032;4.634;2024-03-17T04:20:11;101885.88;;;7.42
78859;BMP280;68210;52.032;4.634;2024-03-17T04:22:15;101894.38;;;7.23
78859;BMP280;68210;52.032;4.634;2024-03-17T04:24:16;101906.09;;;7.31
78859;BMP280;68210;52.032;4.634;2024-03-17T04:26:17;101905.94;;;7.36
78859;BMP280;68210;52.032;4.634;2024-03-17T04:28:18;101904.38;;;7.35
78859;BMP280;68210;52.032;4.634;2024-03-17T04:30:19;101892.69;;;7.27
78859;BMP280;68210;52.032;4.634;2024-03-17T04:32:20;101887.41;;;7.22
78859;BMP280;68210;52.032;4.634;2024-03-17T04:34:20;101891.78;;;7.18
78859;BMP280;68210;52.032;4.634;2024-03-17T04:36:21;101891.59;;;7.14
78859;BMP280;68210;52.032;4.634;2024-03-17T04:38:22;101892.09;;;7.16
78859;BMP280;68210;52.032;4.634;2024-03-17T04:40:22;101884.72;;;7.22
78859;BMP280;68210;52.032;4.634;2024-03-17T04:42:23;101874.81;;;7.17
78859;BMP280;68210;52.032;4.634;2024-03-17T04:44:23;101866.69;;;7.30
78859;BMP280;68210;52.032;4.634;2024-03-17T04:46:24;101872.28;;;7.34
78859;BMP280;68210;52.032;4.634;2024-03-17T04:48:24;101863.81;;;7.27
78859;BMP280;68210;52.032;4.634;2024-03-17T04:50:24;101866.81;;;7.26
78859;BMP280;68210;52.032;4.634;2024-03-17T04:52:26;101870.09;;;7.23
78859;BMP280;68210;52.032;4.634;2024-03-17T04:54:26;101867.59;;;7.26
78859;BMP280;68210;52.032;4.634;2024-03-17T04:56:27;101880.00;;;7.27
78859;BMP280;68210;52.032;4.634;2024-03-17T04:58:27;101869.59;;;7.21
78859;BMP280;68210;52.032;4.634;2024-03-17T05:00:27;101873.00;;;7.26
78859;BMP280;68210;52.032;4.634;2024-03-17T05:02:28;101872.31;;;7.21
78859;BMP280;68210;52.032;4.634;2024-03-17T05:04:29;101875.22;;;7.11
78859;BMP280;68210;52.032;4.634;2024-03-17T05:06:30;101867.53;;;7.04
78859;BMP280;68210;52.032;4.634;2024-03-17T05:08:32;101875.31;;;7.06
78859;BMP280;68210;52.032;4.634;2024-03-17T05:10:33;101861.84;;;7.06
78859;BMP280;68210;52.032;4.634;2024-03-17T05:12:33;101861.94;;;7.01
78859;BMP280;68210;52.032;4.634;2024-03-17T05:14:33;101866.72;;;7.04
78859;BMP280;68210;52.032;4.634;2024-03-17T05:16:34;101865.75;;;7.00
78859;BMP280;68210;52.032;4.634;2024-03-17T05:18:34;101855.94;;;6.91
78859;BMP280;68210;52.032;4.634;2024-03-17T05:20:35;101861.16;;;7.00
78859;BMP280;68210;52.032;4.634;2024-03-17T05:22:35;101868.53;;;6.95
78859;BMP280;68210;52.032;4.634;2024-03-17T05:24:36;101862.13;;;6.91
78859;BMP280;68210;52.032;4.634;2024-03-17T05:26:36;101860.88;;;6.89
78859;BMP280;68210;52.032;4.634;2024-03-17T05:28:37;101871.84;;;6.92
78859;BMP280;68210;52.032;4.634;2024-03-17T05:30:37;101864.25;;;6.94
78859;BMP280;68210;52.032;4.634;2024-03-17T05:32:37;101863.06;;;6.87
78859;BMP280;68210;52.032;4.634;2024-03-17T05:34:38;101873.03;;;6.86
78859;BMP280;68210;52.032;4.634;2024-03-17T05:36:38;101873.84;;;7.00
78859;BMP280;68210;52.032;4.634;2024-03-17T05:38:39;101864.63;;;7.01
78859;BMP280;68210;52.032;4.634;2024-03-17T05:40:39;101870.63;;;6.98
78859;BMP280;68210;52.032;4.634;2024-03-17T05:42:41;101870.13;;;6.96
78859;BMP280;68210;52.032;4.634;2024-03-17T05:44:43;101867.34;;;7.01
78859;BMP280;68210;52.032;4.634;2024-03-17T05:46:53;101866.72;;;7.04
78859;BMP280;68210;52.032;4.634;2024-03-17T05:48:54;101869.44;;;7.04
78859;BMP280;68210;52.032;4.634;2024-03-17T05:50:54;101853.84;;;7.01
78859;BMP280;68210;52.032;4.634;2024-03-17T05:52:55;101866.34;;;6.97
78859;BMP280;68210;52.032;4.634;2024-03-17T05:54:55;101848.09;;;6.94
78859;BMP280;68210;52.032;4.634;2024-03-17T05:56:56;101849.25;;;6.88
78859;BMP280;68210;52.032;4.634;2024-03-17T05:58:56;101849.25;;;6.88
78859;BMP280;68210;52.032;4.634;2024-03-17T06:00:56;101844.88;;;6.92
78859;BMP280;68210;52.032;4.634;2024-03-17T06:02:58;101851.56;;;6.95
78859;BMP280;68210;52.032;4.634;2024-03-17T06:05:00;101849.34;;;6.96
78859;BMP280;68210;52.032;4.634;2024-03-17T06:07:04;101836.56;;;7.02
78859;BMP280;68210;52.032;4.634;2024-03-17T06:09:04;101849.47;;;7.05
78859;BMP280;68210;52.032;4.634;2024-03-17T06:11:10;101849.47;;;7.05
78859;BMP280;68210;52.032;4.634;2024-03-17T06:13:10;101853.84;;;7.01
78859;BMP280;68210;52.032;4.634;2024-03-17T06:15:15;101853.22;;;7.17
78859;BMP280;68210;52.032;4.634;2024-03-17T06:17:16;101862.03;;;7.23
78859;BMP280;68210;52.032;4.634;2024-03-17T06:19:17;101856.00;;;7.26
78859;BMP280;68210;52.032;4.634;2024-03-17T06:21:17;101865.81;;;7.22
78859;BMP280;68210;52.032;4.634;2024-03-17T06:23:18;101860.94;;;7.24
78859;BMP280;68210;52.032;4.634;2024-03-17T06:25:18;101854.72;;;7.23
78859;BMP280;68210;52.032;4.634;2024-03-17T06:27:18;101860.34;;;7.27
78859;BMP280;68210;52.032;4.634;2024-03-17T06:29:19;101851.81;;;7.33
78859;BMP280;68210;52.032;4.634;2024-03-17T06:31:19;101860.44;;;7.22
78859;BMP280;68210;52.032;4.634;2024-03-17T06:33:20;101861.81;;;7.32
78859;BMP280;68210;52.032;4.634;2024-03-17T06:35:21;101853.63;;;7.37
78859;BMP280;68210;52.032;4.634;2024-03-17T06:37:25;101858.28;;;7.45
78859;BMP280;68210;52.032;4.634;2024-03-17T06:39:26;101858.59;;;7.44
78859;BMP280;68210;52.032;4.634;2024-03-17T06:41:26;101855.47;;;7.50
78859;BMP280;68210;52.032;4.634;2024-03-17T06:43:26;101868.38;;;7.53
78859;BMP280;68210;52.032;4.634;2024-03-17T06:45:27;101864.56;;;7.54
78859;BMP280;68210;52.032;4.634;2024-03-17T06:47:27;101857.16;;;7.59
78859;BMP280;68210;52.032;4.634;2024-03-17T06:49:27;101869.13;;;7.67
78859;BMP280;68210;52.032;4.634;2024-03-17T06:51:28;101870.72;;;7.68
78859;BMP280;68210;52.032;4.634;2024-03-17T06:53:28;101865.50;;;7.71
78859;BMP280;68210;52.032;4.634;2024-03-17T06:55:29;101861.75;;;7.59
78859;BMP280;68210;52.032;4.634;2024-03-17T06:57:29;101859.41;;;7.66
78859;BMP280;68210;52.032;4.634;2024-03-17T06:59:32;101859.22;;;7.62
78859;BMP280;68210;52.032;4.634;2024-03-17T07:01:33;101848.25;;;7.59
78859;BMP280;68210;52.032;4.634;2024-03-17T07:03:34;101862.72;;;7.63
78859;BMP280;68210;52.032;4.634;2024-03-17T07:05:34;101845.75;;;7.62
78859;BMP280;68210;52.032;4.634;2024-03-17T07:07:35;101840.91;;;7.73
78859;BMP280;68210;52.032;4.634;2024-03-17T07:09:35;101846.66;;;7.80
78859;BMP280;68210;52.032;4.634;2024-03-17T07:11:36;101847.03;;;7.87
78859;BMP280;68210;52.032;4.634;2024-03-17T07:13:37;101856.94;;;7.91
78859;BMP280;68210;52.032;4.634;2024-03-17T07:15:38;101848.63;;;7.87
78859;BMP280;68210;52.032;4.634;2024-03-17T07:17:39;101852.09;;;8.01
78859;BMP280;68210;52.032;4.634;2024-03-17T07:19:39;101857.00;;;7.99
78859;BMP280;68210;52.032;4.634;2024-03-17T07:21:40;101848.78;;;8.04
78859;BMP280;68210;52.032;4.634;2024-03-17T07:23:40;101838.25;;;8.03
78859;BMP280;68210;52.032;4.634;2024-03-17T07:25:41;101866.47;;;8.10
78859;BMP280;68210;52.032;4.634;2024-03-17T07:27:42;101862.53;;;8.16
78859;BMP280;68210;52.032;4.634;2024-03-17T07:29:42;101863.53;;;8.20
78859;BMP280;68210;52.032;4.634;2024-03-17T07:31:43;101870.53;;;8.21
78859;BMP280;68210;52.032;4.634;2024-03-17T07:33:43;101866.28;;;8.28
78859;BMP280;68210;52.032;4.634;2024-03-17T07:35:50;101857.97;;;8.25
78859;BMP280;68210;52.032;4.634;2024-03-17T07:37:51;101865.34;;;8.33
78859;BMP280;68210;52.032;4.634;2024-03-17T07:39:51;101862.91;;;8.23
78859;BMP280;68210;52.032;4.634;2024-03-17T07:41:52;101871.34;;;8.30
78859;BMP280;68210;52.032;4.634;2024-03-17T07:43:52;101880.75;;;8.32
78859;BMP280;68210;52.032;4.634;2024-03-17T07:47:59;101881.91;;;8.40
78859;BMP280;68210;52.032;4.634;2024-03-17T07:50:00;101879.03;;;8.36
78859;BMP280;68210;52.032;4.634;2024-03-17T07:52:04;101881.53;;;8.33
78859;BMP280;68210;52.032;4.634;2024-03-17T07:54:04;101881.59;;;8.41
78859;BMP280;68210;52.032;4.634;2024-03-17T07:56:09;101880.47;;;8.34
78859;BMP280;68210;52.032;4.634;2024-03-17T07:58:09;101886.66;;;8.34
78859;BMP280;68210;52.032;4.634;2024-03-17T08:00:10;101884.50;;;8.45
78859;BMP280;68210;52.032;4.634;2024-03-17T08:02:15;101885.34;;;8.53
78859;BMP280;68210;52.032;4.634;2024-03-17T08:04:16;101871.06;;;8.61
78859;BMP280;68210;52.032;4.634;2024-03-17T08:06:16;101877.78;;;8.72
78859;BMP280;68210;52.032;4.634;2024-03-17T08:08:17;101880.38;;;8.77
78859;BMP280;68210;52.032;4.634;2024-03-17T08:10:17;101873.34;;;8.76
78859;BMP280;68210;52.032;4.634;2024-03-17T08:12:17;101877.16;;;8.75
78859;BMP280;68210;52.032;4.634;2024-03-17T08:14:18;101862.03;;;8.66
78859;BMP280;68210;52.032;4.634;2024-03-17T08:16:18;101867.59;;;8.69
78859;BMP280;68210;52.032;4.634;2024-03-17T08:18:19;101874.47;;;8.75
78859;BMP280;68210;52.032;4.634;2024-03-17T08:20:19;101861.75;;;8.76
78859;BMP280;68210;52.032;4.634;2024-03-17T08:22:19;101867.34;;;8.79
78859;BMP280;68210;52.032;4.634;2024-03-17T08:24:20;101860.50;;;8.81
78859;BMP280;68210;52.032;4.634;2024-03-17T08:26:20;101859.38;;;8.82
78859;BMP280;68210;52.032;4.634;2024-03-17T08:28:21;101869.88;;;8.84
78859;BMP280;68210;52.032;4.634;2024-03-17T08:30:21;101855.25;;;8.85
78859;BMP280;68210;52.032;4.634;2024-03-17T08:32:21;101873.56;;;8.88
78859;BMP280;68210;52.032;4.634;2024-03-17T08:34:22;101861.63;;;8.89
78859;BMP280;68210;52.032;4.634;2024-03-17T08:36:22;101857.97;;;8.85
78859;BMP280;68210;52.032;4.634;2024-03-17T08:38:23;101854.63;;;8.88
78859;BMP280;68210;52.032;4.634;2024-03-17T08:40:24;101854.38;;;8.98
78859;BMP280;68210;52.032;4.634;2024-03-17T08:42:24;101864.06;;;8.99
78859;BMP280;68210;52.032;4.634;2024-03-17T08:44:25;101847.84;;;8.99
78859;BMP280;68210;52.032;4.634;2024-03-17T08:46:26;101844.78;;;9.00
78859;BMP280;68210;52.032;4.634;2024-03-17T08:48:26;101837.47;;;8.92
78859;BMP280;68210;52.032;4.634;2024-03-17T08:50:27;101843.53;;;8.98
78859;BMP280;68210;52.032;4.634;2024-03-17T08:52:28;101841.31;;;9.00
78859;BMP280;68210;52.032;4.634;2024-03-17T08:54:29;101836.25;;;9.07
78859;BMP280;68210;52.032;4.634;2024-03-17T08:56:29;101834.34;;;9.15
78859;BMP280;68210;52.032;4.634;2024-03-17T08:58:29;101829.72;;;9.16
78859;BMP280;68210;52.032;4.634;2024-03-17T09:00:30;101834.06;;;9.25
78859;BMP280;68210;52.032;4.634;2024-03-17T09:02:32;101838.50;;;9.30
78859;BMP280;68210;52.032;4.634;2024-03-17T09:04:32;101831.00;;;9.27
78859;BMP280;68210;52.032;4.634;2024-03-17T09:06:33;101833.44;;;9.37
78859;BMP280;68210;52.032;4.634;2024-03-17T09:08:35;101828.00;;;9.28
78859;BMP280;68210;52.032;4.634;2024-03-17T09:10:42;101822.94;;;9.35
78859;BMP280;68210;52.032;4.634;2024-03-17T09:12:42;101835.66;;;9.35
78859;BMP280;68210;52.032;4.634;2024-03-17T09:14:47;101835.97;;;9.50
78859;BMP280;68210;52.032;4.634;2024-03-17T09:16:48;101829.28;;;9.47
78859;BMP280;68210;52.032;4.634;2024-03-17T09:18:48;101829.94;;;9.53
78859;BMP280;68210;52.032;4.634;2024-03-17T09:21:02;101820.72;;;9.62
78859;BMP280;68210;52.032;4.634;2024-03-17T09:23:03;101818.47;;;9.56
78859;BMP280;68210;52.032;4.634;2024-03-17T09:25:05;101823.72;;;9.69
78859;BMP280;68210;52.032;4.634;2024-03-17T09:27:07;101824.84;;;9.68
78859;BMP280;68210;52.032;4.634;2024-03-17T09:29:08;101835.69;;;9.68
78859;BMP280;68210;52.032;4.634;2024-03-17T09:31:10;101819.91;;;9.78
78859;BMP280;68210;52.032;4.634;2024-03-17T09:33:11;101813.69;;;9.86
78859;BMP280;68210;52.032;4.634;2024-03-17T09:35:11;101817.84;;;9.92
78859;BMP280;68210;52.032;4.634;2024-03-17T09:37:12;101820.03;;;10.07
78859;BMP280;68210;52.032;4.634;2024-03-17T09:39:13;101808.56;;;10.10
78859;BMP280;68210;52.032;4.634;2024-03-17T09:41:21;101809.53;;;10.14
78859;BMP280;68210;52.032;4.634;2024-03-17T09:43:23;101814.00;;;10.18
78859;BMP280;68210;52.032;4.634;2024-03-17T09:45:24;101809.47;;;10.31
78859;BMP280;68210;52.032;4.634;2024-03-17T09:47:24;101814.56;;;10.40
78859;BMP280;68210;52.032;4.634;2024-03-17T09:49:26;101809.44;;;10.39
78859;BMP280;68210;52.032;4.634;2024-03-17T09:51:26;101813.25;;;10.46
78859;BMP280;68210;52.032;4.634;2024-03-17T09:53:32;101808.34;;;10.31
78859;BMP280;68210;52.032;4.634;2024-03-17T09:55:33;101806.41;;;10.40
78859;BMP280;68210;52.032;4.634;2024-03-17T09:57:34;101806.25;;;10.45
78859;BMP280;68210;52.032;4.634;2024-03-17T09:59:35;101807.81;;;10.46
78859;BMP280;68210;52.032;4.634;2024-03-17T10:01:35;101812.16;;;10.39
78859;BMP280;68210;52.032;4.634;2024-03-17T10:03:43;101804.94;;;10.51
78859;BMP280;68210;52.032;4.634;2024-03-17T10:05:59;101803.34;;;10.50
78859;BMP280;68210;52.032;4.634;2024-03-17T10:08:00;101802.22;;;10.51
78859;BMP280;68210;52.032;4.634;2024-03-17T10:10:26;101804.13;;;10.59
78859;BMP280;68210;52.032;4.634;2024-03-17T10:12:28;101814.47;;;10.57
78859;BMP280;68210;52.032;4.634;2024-03-17T10:14:29;101807.25;;;10.69
78859;BMP280;68210;52.032;4.634;2024-03-17T10:16:30;101801.97;;;10.73
78859;BMP280;68210;52.032;4.634;2024-03-17T10:18:31;101802.31;;;10.63
78859;BMP280;68210;52.032;4.634;2024-03-17T10:20:31;101794.31;;;10.75
78859;BMP280;68210;52.032;4.634;2024-03-17T10:22:32;101816.09;;;10.87
78859;BMP280;68210;52.032;4.634;2024-03-17T10:24:32;101808.25;;;10.93
78859;BMP280;68210;52.032;4.634;2024-03-17T10:26:43;101811.72;;;11.02
78859;BMP280;68210;52.032;4.634;2024-03-17T10:28:46;101813.94;;;11.00
78859;BMP280;68210;52.032;4.634;2024-03-17T10:31:00;101796.34;;;11.06
78859;BMP280;68210;52.032;4.634;2024-03-17T10:33:01;101808.66;;;11.04
78859;BMP280;68210;52.032;4.634;2024-03-17T10:35:01;101803.31;;;11.16
78859;BMP280;68210;52.032;4.634;2024-03-17T10:37:08;101805.00;;;11.28
78859;BMP280;68210;52.032;4.634;2024-03-17T10:39:27;101797.75;;;11.32
78859;BMP280;68210;52.032;4.634;2024-03-17T10:41:30;101797.44;;;11.34
78859;BMP280;68210;52.032;4.634;2024-03-17T10:43:33;101790.06;;;11.43
78859;BMP280;68210;52.032;4.634;2024-03-17T10:45:34;101794.94;;;11.49
78859;BMP280;68210;52.032;4.634;2024-03-17T10:50:38;101792.16;;;11.78
78859;BMP280;68210;52.032;4.634;2024-03-17T10:52:41;101790.41;;;11.73
78859;BMP280;68210;52.032;4.634;2024-03-17T10:54:50;101778.97;;;11.68
78859;BMP280;68210;52.032;4.634;2024-03-17T10:56:53;101792.94;;;11.78
78859;BMP280;68210;52.032;4.634;2024-03-17T10:58:55;101784.28;;;11.64
78859;BMP280;68210;52.032;4.634;2024-03-17T11:00:57;101784.31;;;11.76
78859;BMP280;68210;52.032;4.634;2024-03-17T11:02:59;101770.63;;;11.73
78859;BMP280;68210;52.032;4.634;2024-03-17T11:05:01;101779.22;;;11.75
78859;BMP280;68210;52.032;4.634;2024-03-17T11:07:02;101771.09;;;11.75
78859;BMP280;68210;52.032;4.634;2024-03-17T11:09:03;101779.25;;;11.86
78859;BMP280;68210;52.032;4.634;2024-03-17T11:11:04;101771.25;;;11.90
78859;BMP280;68210;52.032;4.634;2024-03-17T11:13:04;101786.03;;;11.81
78859;BMP280;68210;52.032;4.634;2024-03-17T11:17:25;101766.03;;;11.85
78859;BMP280;68210;52.032;4.634;2024-03-17T11:19:26;101770.22;;;11.83
78859;BMP280;68210;52.032;4.634;2024-03-17T11:21:27;101769.22;;;11.87
78859;BMP280;68210;52.032;4.634;2024-03-17T11:23:29;101759.38;;;11.94
78859;BMP280;68210;52.032;4.634;2024-03-17T11:27:41;101765.16;;;12.05
78859;BMP280;68210;52.032;4.634;2024-03-17T11:29:42;101754.41;;;12.08
78859;BMP280;68210;52.032;4.634;2024-03-17T11:31:44;101757.28;;;12.12
78859;BMP280;68210;52.032;4.634;2024-03-17T11:35:45;101772.44;;;12.13
78859;BMP280;68210;52.032;4.634;2024-03-17T11:37:46;101759.75;;;12.05
78859;BMP280;68210;52.032;4.634;2024-03-17T11:39:47;101754.31;;;12.05
78859;BMP280;68210;52.032;4.634;2024-03-17T11:41:50;101753.81;;;11.91
78859;BMP280;68210;52.032;4.634;2024-03-17T11:43:51;101748.38;;;11.91
78859;BMP280;68210;52.032;4.634;2024-03-17T11:45:54;101750.22;;;11.99
78859;BMP280;68210;52.032;4.634;2024-03-17T11:47:55;101742.75;;;11.96
78859;BMP280;68210;52.032;4.634;2024-03-17T11:49:55;101752.00;;;11.95